Observations for Trim Patrick St
| Time | AQI | Temp °C | Hum % | Pres Pa | CO μg/m³ | H₂S μg/m³ | NO μg/m³ | NO₂ μg/m³ | O₃ μg/m³ | SO₂ μg/m³ | PM1 μg/m³ | PM2.5 μg/m³ | PM10 μg/m³ |
|---|---|---|---|---|---|---|---|---|---|---|---|---|---|
| Saturday 8 August 2026 | |||||||||||||
| 01:52 | 2 | 14.5 | 70 | 38,460 | 0.22 | 1.12 | 3.31 | 21.5 | 15.83 | 0 | 4.57 | 8.79 | 9.67 |
| 01:51 | 2 | 14.5 | 68 | 38,460 | 0.22 | 2 | 3.28 | 16.85 | 13.88 | 0 | 4.57 | 8.93 | 9.82 |
| 01:50 | 2 | 14.5 | 68 | 38,460 | 0.22 | 3.56 | 3.28 | 24.21 | 15.32 | 0 | 6.29 | 11.09 | 12.2 |
| 01:49 | 2 | 14.5 | 71 | 38,460 | 0.21 | 4.21 | 3.32 | 27.01 | 19.51 | 0 | 5.43 | 10.15 | 11.16 |
| 01:48 | 2 | 14.5 | 72 | 38,460 | 0.23 | 4.03 | 3.26 | 22.46 | 11.34 | 0 | 5.43 | 9.29 | 10.22 |
| 01:47 | 2 | 14.5 | 72 | 38,460 | 0.22 | 5.74 | 3.29 | 31.65 | 20.08 | 0 | 6.29 | 10.06 | 11.07 |
| 01:46 | 2 | 14.5 | 72 | 38,460 | 0.23 | 5.01 | 3.28 | 33.75 | 16.02 | 0 | 4.57 | 8.65 | 9.51 |
| 01:45 | 2 | 14.5 | 72 | 38,460 | 0.25 | 5.3 | 3.32 | 39.34 | 13.51 | 0 | 4.57 | 10.02 | 11.02 |
| 01:44 | 2 | 14.5 | 73 | 38,460 | 0.25 | 2.36 | 3.31 | 30.45 | 12.73 | 0 | 4.57 | 8.55 | 9.41 |
| 01:43 | 2 | 14.5 | 73 | 38,460 | 0.25 | 1.45 | 3.23 | 20.46 | 15.38 | 0 | 5.43 | 8.54 | 9.39 |
| 01:42 | 2 | 14.5 | 73 | 38,460 | 0.26 | 2.39 | 3.25 | 20.45 | 15.73 | 0 | 7.14 | 9.97 | 10.96 |
| 01:41 | 2 | 14.5 | 73 | 38,460 | 0.25 | 2.94 | 3.24 | 26.95 | 15.27 | 0 | 4.57 | 9.27 | 10.19 |
| 01:40 | 2 | 14.5 | 73 | 38,460 | 0.25 | 1.01 | 3.27 | 16.98 | 17.27 | 0 | 4.57 | 8.54 | 9.4 |
| 01:39 | 2 | 14.5 | 73 | 38,460 | 0.25 | 2.83 | 3.28 | 23.39 | 14.53 | 0 | 5.43 | 9.97 | 10.97 |
| 01:38 | 2 | 14.5 | 73 | 38,460 | 0.25 | 2.21 | 3.24 | 29.54 | 13.31 | 0 | 5.43 | 10.71 | 11.78 |
| 01:37 | 2 | 14.5 | 73 | 38,460 | 0.25 | 0.41 | 3.22 | 24.32 | 13.14 | 0 | 5.43 | 9.25 | 10.18 |
| 01:36 | 2 | 14.5 | 73 | 38,460 | 0.24 | 0 | 3.27 | 26.52 | 11.58 | 0 | 4.57 | 8.54 | 9.4 |
| 01:35 | 2 | 14.5 | 73 | 38,460 | 0.25 | 0.23 | 3.23 | 37.32 | 6.58 | 0 | 5.43 | 9.26 | 10.18 |
| 01:34 | 2 | 14.5 | 73 | 38,460 | 0.24 | 0.6 | 3.23 | 14.73 | 17.75 | 0 | 5.43 | 10.68 | 11.75 |
| 01:33 | 2 | 14.5 | 73 | 38,460 | 0.25 | 1.04 | 3.31 | 31.34 | 9.95 | 0 | 5.43 | 8.55 | 9.41 |